Time;durP1;ratioP1;P1;durP2;ratioP2;P2;SDS_P1;SDS_P2;PMS_P1;PMS_P2;Temp;Humidity;BMP_temperature;BMP_pressure;BME280_temperature;BME280_humidity;BME280_pressure;Samples;Min_cycle;Max_cycle;Signal;HPM_P1;HPM_P2
2024/01/19 00:01:53;;;;;;;13.18;4.57;;;2.90;99.90;;;;;;4978401;28;20121;-79
2024/01/19 00:04:19;;;;;;;12.25;4.70;;;2.70;99.90;;;;;;4978302;28;20546;-81
2024/01/19 00:06:44;;;;;;;13.43;4.82;;;2.70;99.90;;;;;;4962650;28;20391;-79
2024/01/19 00:09:10;;;;;;;10.93;4.82;;;2.60;99.90;;;;;;4994107;28;20038;-80
2024/01/19 00:11:36;;;;;;;23.83;5.35;;;2.60;99.90;;;;;;4980296;28;20038;-80
2024/01/19 00:14:02;;;;;;;11.52;4.32;;;2.60;99.90;;;;;;4997902;28;20034;-80
2024/01/19 00:16:28;;;;;;;10.13;4.93;;;2.50;99.90;;;;;;4982397;28;20459;-79
2024/01/19 00:18:53;;;;;;;10.93;4.60;;;2.50;99.90;;;;;;4997847;28;20029;-80
2024/01/19 00:21:19;;;;;;;8.18;4.88;;;2.50;99.90;;;;;;4981542;28;20026;-80
2024/01/19 00:23:45;;;;;;;11.07;4.28;;;2.50;99.90;;;;;;5015021;28;20420;-80
2024/01/19 00:26:11;;;;;;;12.68;4.07;;;2.40;99.90;;;;;;5015099;28;20386;-80
2024/01/19 00:28:36;;;;;;;12.82;4.38;;;2.40;99.90;;;;;;4998078;28;20038;-80
2024/01/19 00:31:02;;;;;;;12.85;4.32;;;2.40;99.90;;;;;;4981300;28;20438;-80
2024/01/19 00:33:28;;;;;;;7.97;3.78;;;2.40;99.90;;;;;;4998146;28;20034;-80
2024/01/19 00:35:53;;;;;;;10.00;3.83;;;2.40;99.90;;;;;;4997700;28;20479;-80
2024/01/19 00:38:20;;;;;;;10.52;4.88;;;2.40;99.90;;;;;;4964651;28;20084;-80
2024/01/19 00:40:45;;;;;;;11.27;3.78;;;2.40;99.90;;;;;;4965491;28;20030;-80
2024/01/19 00:43:11;;;;;;;10.18;3.35;;;2.40;99.90;;;;;;4980321;28;20056;-79
2024/01/19 00:45:37;;;;;;;9.43;3.78;;;2.40;99.90;;;;;;4964496;28;20065;-80
2024/01/19 00:48:03;;;;;;;12.25;3.95;;;2.30;99.90;;;;;;4980823;28;20121;-80
2024/01/19 00:50:29;;;;;;;11.60;3.97;;;2.30;99.90;;;;;;4981010;28;20550;-80
2024/01/19 00:52:55;;;;;;;10.07;3.70;;;2.30;99.90;;;;;;4996614;28;20076;-80
2024/01/19 00:55:20;;;;;;;11.38;3.88;;;2.30;99.90;;;;;;4980535;28;20148;-80
2024/01/19 00:57:46;;;;;;;10.77;3.10;;;2.30;99.90;;;;;;4980230;28;20410;-79
2024/01/19 01:00:12;;;;;;;6.22;2.15;;;2.40;99.90;;;;;;4996534;28;20030;-80
2024/01/19 01:02:37;;;;;;;7.05;2.80;;;2.30;99.90;;;;;;4996448;28;20026;-80
2024/01/19 01:05:03;;;;;;;7.82;2.33;;;2.30;99.90;;;;;;4964378;28;20129;-80
2024/01/19 01:07:29;;;;;;;8.27;1.92;;;2.30;99.90;;;;;;4996309;28;20037;-80
2024/01/19 01:09:55;;;;;;;6.70;1.90;;;2.40;99.90;;;;;;4996247;28;20038;-79
2024/01/19 01:12:21;;;;;;;9.35;2.35;;;2.40;99.90;;;;;;5013265;28;20053;-79
2024/01/19 01:14:47;;;;;;;8.55;2.53;;;2.50;99.90;;;;;;4980015;28;20140;-79
2024/01/19 01:17:13;;;;;;;3.55;1.13;;;2.60;99.90;;;;;;5013929;28;20070;-80
2024/01/19 01:19:38;;;;;;;5.22;1.40;;;2.60;99.90;;;;;;4980194;28;20034;-79
2024/01/19 01:22:05;;;;;;;7.50;1.73;;;2.60;99.90;;;;;;4980371;28;20359;-79
2024/01/19 01:24:32;;;;;;;5.45;1.85;;;2.70;99.90;;;;;;4979779;28;20033;-80
2024/01/19 01:26:57;;;;;;;4.47;1.25;;;2.70;99.90;;;;;;4996178;28;20041;-78
2024/01/19 01:29:23;;;;;;;6.35;1.42;;;2.70;99.90;;;;;;4979827;28;20038;-80
2024/01/19 01:31:50;;;;;;;7.55;1.45;;;2.70;99.90;;;;;;5013810;28;20057;-80
2024/01/19 01:34:16;;;;;;;4.32;1.40;;;2.70;99.90;;;;;;5013850;28;20034;-79
2024/01/19 01:36:42;;;;;;;4.82;1.13;;;2.80;99.90;;;;;;4996648;28;20425;-79
2024/01/19 01:39:11;;;;;;;4.55;1.30;;;2.90;99.90;;;;;;4980139;28;20128;-79
2024/01/19 01:41:37;;;;;;;3.58;1.10;;;2.90;99.90;;;;;;4995791;28;20030;-79
2024/01/19 01:44:04;;;;;;;4.32;1.00;;;2.90;99.90;;;;;;5013907;28;20034;-79
2024/01/19 01:46:30;;;;;;;9.80;1.10;;;2.90;99.90;;;;;;4995735;28;20034;-79
2024/01/19 01:48:56;;;;;;;2.70;0.93;;;2.90;99.90;;;;;;4996580;28;20116;-79
2024/01/19 01:51:23;;;;;;;5.63;0.98;;;2.90;99.90;;;;;;4980599;28;20083;-79
2024/01/19 01:53:49;;;;;;;3.80;1.27;;;2.90;99.90;;;;;;4980865;28;20037;-80
2024/01/19 01:56:16;;;;;;;2.03;0.75;;;2.90;99.90;;;;;;4983260;28;20446;-80
2024/01/19 01:58:42;;;;;;;4.22;0.70;;;2.90;99.90;;;;;;5019535;28;20368;-80
2024/01/19 02:01:07;;;;;;;5.22;1.70;;;2.90;99.90;;;;;;4983905;28;20097;-80
2024/01/19 02:03:34;;;;;;;3.33;0.57;;;2.90;99.90;;;;;;4982232;28;20030;-80
2024/01/19 02:06:00;;;;;;;4.30;0.80;;;2.90;99.90;;;;;;4996352;28;20057;-79
2024/01/19 02:08:26;;;;;;;3.38;0.70;;;2.90;99.90;;;;;;4995475;28;20038;-79
2024/01/19 02:10:51;;;;;;;2.70;0.52;;;2.90;99.90;;;;;;4963495;28;20378;-79
2024/01/19 02:13:17;;;;;;;1.98;0.50;;;3.00;99.90;;;;;;4995474;28;20054;-79
2024/01/19 02:15:43;;;;;;;2.55;0.60;;;2.90;99.90;;;;;;4995626;28;20034;-79
2024/01/19 02:18:09;;;;;;;3.10;0.70;;;2.80;99.90;;;;;;4979386;28;20145;-80
2024/01/19 02:20:34;;;;;;;3.03;0.50;;;2.80;99.90;;;;;;4962967;28;20041;-80
2024/01/19 02:23:04;;;;;;;2.50;0.68;;;2.80;99.90;;;;;;4995096;28;20044;-79
2024/01/19 02:25:30;;;;;;;2.63;0.80;;;2.80;99.90;;;;;;4995075;28;20429;-79
2024/01/19 02:27:57;;;;;;;1.77;0.50;;;2.80;99.90;;;;;;4995159;28;20116;-80
2024/01/19 02:30:22;;;;;;;2.83;0.90;;;2.90;99.90;;;;;;4995325;28;20030;-79
2024/01/19 02:32:48;;;;;;;2.30;0.63;;;2.80;99.90;;;;;;4995247;28;20489;-80
2024/01/19 02:35:14;;;;;;;1.73;0.50;;;2.80;99.90;;;;;;4995141;28;20052;-79
2024/01/19 02:37:39;;;;;;;1.63;0.55;;;2.80;99.90;;;;;;4962955;28;20132;-80
2024/01/19 02:40:06;;;;;;;1.42;0.57;;;2.80;99.90;;;;;;4994964;28;20497;-80
2024/01/19 02:42:31;;;;;;;2.53;0.70;;;2.70;99.90;;;;;;4995490;28;20034;-80
2024/01/19 02:45:01;;;;;;;2.05;0.40;;;2.70;99.90;;;;;;5012241;28;20342;-79
2024/01/19 02:47:28;;;;;;;2.15;0.43;;;2.60;99.90;;;;;;4996207;28;20034;-80
2024/01/19 02:49:53;;;;;;;2.35;0.40;;;2.60;99.90;;;;;;4979120;28;20026;-80
2024/01/19 02:52:19;;;;;;;2.75;0.60;;;2.50;99.90;;;;;;4962983;28;20092;-80
2024/01/19 02:54:45;;;;;;;3.42;0.60;;;2.50;99.90;;;;;;4979738;28;20476;-79
2024/01/19 02:57:10;;;;;;;2.58;0.50;;;2.50;99.90;;;;;;4995490;28;20042;-80
2024/01/19 02:59:36;;;;;;;3.50;0.55;;;2.50;99.90;;;;;;4979399;28;20412;-80
2024/01/19 03:02:02;;;;;;;5.10;0.63;;;2.50;99.90;;;;;;4995963;28;20034;-81
2024/01/19 03:04:28;;;;;;;2.70;0.80;;;2.40;99.90;;;;;;4979733;28;20057;-80
2024/01/19 03:06:55;;;;;;;6.00;0.70;;;2.40;99.90;;;;;;4995938;28;20034;-80
2024/01/19 03:09:20;;;;;;;3.80;0.70;;;2.40;99.90;;;;;;4996441;28;20034;-80
2024/01/19 03:11:46;;;;;;;3.85;1.25;;;2.40;99.90;;;;;;4962778;28;20426;-80
2024/01/19 03:14:12;;;;;;;4.85;0.90;;;2.40;99.90;;;;;;4978782;28;20054;-80
2024/01/19 03:16:42;;;;;;;3.67;1.20;;;2.40;99.90;;;;;;5012927;28;20041;-80
2024/01/19 03:19:07;;;;;;;3.97;1.55;;;2.40;99.90;;;;;;4996018;28;20030;-80
2024/01/19 03:21:33;;;;;;;3.92;1.50;;;2.30;99.90;;;;;;4982912;28;20481;-80
2024/01/19 03:23:59;;;;;;;6.20;1.35;;;2.30;99.90;;;;;;4982783;28;20410;-80
2024/01/19 03:26:24;;;;;;;6.10;1.58;;;2.30;99.90;;;;;;5016169;28;20132;-80
2024/01/19 03:28:50;;;;;;;4.82;1.80;;;2.30;99.90;;;;;;4998657;28;20113;-80
2024/01/19 03:31:15;;;;;;;5.25;1.95;;;2.30;99.90;;;;;;4998355;28;20029;-80
2024/01/19 03:33:41;;;;;;;7.25;2.35;;;2.30;99.90;;;;;;5015961;28;20025;-80
2024/01/19 03:36:07;;;;;;;6.85;2.33;;;2.30;99.90;;;;;;5015828;28;20124;-80
2024/01/19 03:38:33;;;;;;;5.43;2.58;;;2.30;99.90;;;;;;4998730;28;20021;-79
2024/01/19 03:41:00;;;;;;;6.97;2.63;;;2.30;99.90;;;;;;4982276;28;20029;-79
2024/01/19 03:43:26;;;;;;;10.13;2.80;;;2.20;99.90;;;;;;5015935;28;20399;-80
2024/01/19 03:45:52;;;;;;;5.18;2.67;;;2.10;99.90;;;;;;5015902;28;20025;-80
2024/01/19 03:48:18;;;;;;;6.20;2.60;;;2.10;99.90;;;;;;4998136;28;20035;-79
2024/01/19 03:50:44;;;;;;;7.75;3.70;;;2.10;99.90;;;;;;4965913;28;20030;-79
2024/01/19 03:53:10;;;;;;;8.25;3.92;;;2.10;99.90;;;;;;4998192;28;20037;-80
2024/01/19 03:55:36;;;;;;;5.45;2.92;;;2.00;99.90;;;;;;4982533;28;20033;-80
2024/01/19 03:58:02;;;;;;;7.70;3.47;;;2.00;99.90;;;;;;4965573;28;20034;-80
2024/01/19 04:00:28;;;;;;;6.65;3.00;;;1.90;99.90;;;;;;5015312;28;20101;-80
2024/01/19 04:02:54;;;;;;;8.20;3.35;;;2.00;99.90;;;;;;4982166;28;20474;-81
2024/01/19 04:05:20;;;;;;;6.65;3.10;;;2.00;99.90;;;;;;5016051;28;20182;-80
2024/01/19 04:07:46;;;;;;;9.02;3.40;;;2.00;99.90;;;;;;4981882;28;20045;-80
2024/01/19 04:10:11;;;;;;;8.55;3.28;;;2.00;99.90;;;;;;4981682;28;20026;-80
2024/01/19 04:12:37;;;;;;;7.38;3.30;;;2.00;99.90;;;;;;4981209;28;20120;-80
2024/01/19 04:15:03;;;;;;;8.20;3.88;;;2.00;99.90;;;;;;4981581;28;20030;-80
2024/01/19 04:17:29;;;;;;;6.47;3.10;;;2.00;99.90;;;;;;4997550;28;20040;-80
2024/01/19 04:19:55;;;;;;;8.52;3.40;;;2.00;99.90;;;;;;4981503;28;20035;-80
2024/01/19 04:22:20;;;;;;;6.57;3.30;;;2.00;99.90;;;;;;4981986;28;20030;-80
2024/01/19 04:24:46;;;;;;;8.85;3.50;;;2.00;99.90;;;;;;4981356;28;20463;-80
2024/01/19 04:27:11;;;;;;;10.88;3.75;;;2.00;99.90;;;;;;4965183;28;20038;-80
2024/01/19 04:29:37;;;;;;;7.15;3.25;;;2.00;99.90;;;;;;4997269;28;20088;-80
2024/01/19 04:32:03;;;;;;;9.93;3.50;;;1.90;99.90;;;;;;4997302;28;20026;-80
2024/01/19 04:34:29;;;;;;;11.82;3.97;;;1.90;99.90;;;;;;4981571;28;20033;-80
2024/01/19 04:36:54;;;;;;;5.22;3.60;;;2.00;99.90;;;;;;4981670;28;20521;-80
2024/01/19 04:39:20;;;;;;;4.63;3.03;;;2.00;99.90;;;;;;4999305;28;20025;-80
2024/01/19 04:41:46;;;;;;;6.53;3.10;;;2.10;99.90;;;;;;4986854;28;20084;-80
2024/01/19 04:44:11;;;;;;;8.60;3.40;;;2.20;99.90;;;;;;5001964;28;20029;-80
2024/01/19 04:46:37;;;;;;;9.85;3.58;;;2.20;99.90;;;;;;5001143;28;20034;-80
2024/01/19 04:49:03;;;;;;;7.32;3.00;;;2.30;99.90;;;;;;4997993;28;20500;-80
2024/01/19 04:51:28;;;;;;;7.53;2.80;;;2.40;99.90;;;;;;4981508;28;20127;-80
2024/01/19 04:53:54;;;;;;;7.65;2.88;;;2.40;99.90;;;;;;5014999;28;20398;-81
2024/01/19 04:56:19;;;;;;;7.05;3.10;;;2.40;99.90;;;;;;4996773;28;20030;-80
2024/01/19 04:58:45;;;;;;;4.85;2.60;;;2.50;99.90;;;;;;4980445;28;20037;-80
2024/01/19 05:01:11;;;;;;;4.68;2.67;;;2.60;99.90;;;;;;4997337;28;20030;-79
2024/01/19 05:03:37;;;;;;;7.32;3.05;;;2.60;99.90;;;;;;5014848;28;20489;-80
2024/01/19 05:06:02;;;;;;;6.80;2.83;;;2.70;99.90;;;;;;4981000;28;20049;-80
2024/01/19 05:08:28;;;;;;;7.97;3.25;;;2.80;99.90;;;;;;4981287;28;20470;-80
2024/01/19 05:10:54;;;;;;;7.95;3.22;;;2.80;99.90;;;;;;4996858;28;20489;-79
2024/01/19 05:13:19;;;;;;;6.88;2.92;;;2.70;99.90;;;;;;4996106;28;20486;-79
2024/01/19 05:15:45;;;;;;;6.95;3.03;;;2.70;99.90;;;;;;4979975;28;20398;-79
2024/01/19 05:18:11;;;;;;;9.45;3.40;;;2.70;99.90;;;;;;4980098;28;20034;-79
2024/01/19 05:20:38;;;;;;;9.88;2.70;;;2.60;99.90;;;;;;4996369;28;20346;-80
2024/01/19 05:23:04;;;;;;;6.38;2.80;;;2.60;99.90;;;;;;4996486;28;20026;-79
2024/01/19 05:25:30;;;;;;;9.80;2.90;;;2.60;99.90;;;;;;4980416;28;20116;-79
2024/01/19 05:27:56;;;;;;;7.50;2.90;;;2.60;99.90;;;;;;4963920;28;20451;-79
2024/01/19 05:30:23;;;;;;;6.80;2.67;;;2.60;99.90;;;;;;4979700;28;20095;-79
2024/01/19 05:32:49;;;;;;;7.32;2.63;;;2.50;99.90;;;;;;4980059;28;20041;-80
2024/01/19 05:35:15;;;;;;;11.15;3.20;;;2.50;99.90;;;;;;4996204;28;20030;-79
2024/01/19 05:37:40;;;;;;;6.90;2.67;;;2.40;99.90;;;;;;4996313;28;20034;-80
2024/01/19 05:40:07;;;;;;;9.38;2.90;;;2.40;99.90;;;;;;4963754;28;20393;-81
2024/01/19 05:42:32;;;;;;;7.72;2.92;;;2.40;99.90;;;;;;4995401;28;20030;-80
2024/01/19 05:44:58;;;;;;;6.35;2.60;;;2.40;99.90;;;;;;4995681;28;20129;-80
2024/01/19 05:47:24;;;;;;;4.45;2.30;;;2.30;99.90;;;;;;4979987;28;20104;-80
2024/01/19 05:49:49;;;;;;;9.57;2.90;;;2.30;99.90;;;;;;4979839;28;20053;-80
2024/01/19 05:52:15;;;;;;;7.80;2.60;;;2.40;99.90;;;;;;4979720;28;20497;-80
2024/01/19 05:54:41;;;;;;;7.22;2.40;;;2.40;99.90;;;;;;4996047;28;20043;-80
2024/01/19 05:57:09;;;;;;;5.35;2.78;;;2.40;99.90;;;;;;4963849;28;20124;-80
2024/01/19 05:59:38;;;;;;;5.78;2.90;;;2.40;99.90;;;;;;4980945;28;20382;-81
2024/01/19 06:02:04;;;;;;;4.60;2.28;;;2.50;99.90;;;;;;4980377;28;20037;-80
2024/01/19 06:04:33;;;;;;;5.32;2.58;;;2.50;99.90;;;;;;4995877;28;20062;-80
2024/01/19 06:06:59;;;;;;;6.15;2.72;;;2.50;99.90;;;;;;4979577;28;20041;-78
2024/01/19 06:09:25;;;;;;;5.28;1.90;;;2.60;99.90;;;;;;4995774;28;20466;-77
2024/01/19 06:11:51;;;;;;;5.88;3.35;;;2.70;99.90;;;;;;5012999;28;20062;-77
2024/01/19 06:14:16;;;;;;;4.90;2.67;;;3.50;99.90;;;;;;4995469;28;20496;-78
2024/01/19 06:16:42;;;;;;;4.97;2.65;;;3.90;99.90;;;;;;4995336;28;20493;-78
2024/01/19 06:19:08;;;;;;;5.85;2.53;;;3.90;99.90;;;;;;4996668;28;20030;-77
2024/01/19 06:21:33;;;;;;;6.05;2.17;;;3.80;99.90;;;;;;5013042;28;20060;-76
2024/01/19 06:23:59;;;;;;;4.82;2.40;;;3.70;99.90;;;;;;4996019;28;20474;-77
2024/01/19 06:26:25;;;;;;;5.75;2.20;;;3.70;99.90;;;;;;4979197;28;20125;-78
2024/01/19 06:28:50;;;;;;;6.00;2.10;;;3.60;99.90;;;;;;4979295;28;20034;-76
2024/01/19 06:31:16;;;;;;;2.53;1.80;;;3.50;99.90;;;;;;5012691;28;20026;-77
2024/01/19 06:33:42;;;;;;;5.63;2.67;;;3.50;99.90;;;;;;5013305;28;20033;-76
2024/01/19 06:36:10;;;;;;;7.70;1.90;;;3.40;99.90;;;;;;4995448;28;20363;-74
2024/01/19 06:38:36;;;;;;;4.57;2.75;;;3.30;99.90;;;;;;4995937;28;20036;-76
2024/01/19 06:41:05;;;;;;;6.40;2.15;;;3.20;99.90;;;;;;5013301;28;20058;-76
2024/01/19 06:43:31;;;;;;;4.88;2.05;;;3.10;99.90;;;;;;4995206;28;20025;-77
2024/01/19 06:45:57;;;;;;;4.30;2.15;;;3.10;99.90;;;;;;4995435;28;20040;-76
2024/01/19 06:48:22;;;;;;;6.75;2.88;;;3.00;99.90;;;;;;4979253;28;20370;-77
2024/01/19 06:50:48;;;;;;;4.35;2.92;;;2.90;99.90;;;;;;4994886;28;20033;-77
2024/01/19 06:53:14;;;;;;;8.35;3.28;;;2.80;99.90;;;;;;4995506;28;20037;-77
2024/01/19 06:55:39;;;;;;;6.43;3.13;;;2.80;99.90;;;;;;5015803;28;20421;-77
2024/01/19 06:58:05;;;;;;;10.32;4.55;;;2.70;99.90;;;;;;4983001;28;20466;-77
2024/01/19 07:00:31;;;;;;;7.05;4.22;;;2.70;99.90;;;;;;4999137;28;20034;-78
2024/01/19 07:02:56;;;;;;;18.45;4.25;;;2.60;99.90;;;;;;4999235;28;20030;-77
2024/01/19 07:05:22;;;;;;;11.68;5.00;;;2.50;99.90;;;;;;4982925;28;20045;-78
2024/01/19 07:07:48;;;;;;;12.82;5.10;;;2.50;99.90;;;;;;5016458;28;20363;-78
2024/01/19 07:10:14;;;;;;;17.08;4.90;;;2.40;99.90;;;;;;4982873;28;20034;-79
2024/01/19 07:12:40;;;;;;;15.25;5.60;;;2.40;99.90;;;;;;4998653;28;20553;-78
2024/01/19 07:15:07;;;;;;;15.57;6.05;;;2.40;99.90;;;;;;4999066;28;20096;-78
2024/01/19 07:17:32;;;;;;;22.00;6.60;;;2.30;99.90;;;;;;4966800;28;20026;-81
2024/01/19 07:20:00;;;;;;;14.13;6.65;;;2.30;99.90;;;;;;5016662;28;20091;-81
2024/01/19 07:22:29;;;;;;;18.17;7.50;;;2.30;99.90;;;;;;4983036;28;20034;-81
2024/01/19 07:24:55;;;;;;;10.52;7.28;;;2.20;99.90;;;;;;5016777;28;20025;-79
2024/01/19 07:27:20;;;;;;;11.73;7.50;;;2.20;99.90;;;;;;4998473;28;20030;-78
2024/01/19 07:29:46;;;;;;;14.38;8.98;;;2.20;99.90;;;;;;4998804;28;20041;-77
2024/01/19 07:32:11;;;;;;;16.65;8.48;;;2.30;99.90;;;;;;4983746;28;20451;-78
2024/01/19 07:34:37;;;;;;;13.15;8.88;;;2.30;99.90;;;;;;5018717;28;20140;-78
2024/01/19 07:37:03;;;;;;;13.82;8.73;;;2.30;99.90;;;;;;4984353;28;20033;-79
2024/01/19 07:39:29;;;;;;;13.85;9.43;;;2.30;99.90;;;;;;5018219;28;20026;-81
2024/01/19 07:41:55;;;;;;;14.98;8.85;;;2.40;99.90;;;;;;4985374;28;20084;-75
2024/01/19 07:44:21;;;;;;;15.18;9.90;;;2.30;99.90;;;;;;5016932;28;20061;-79
2024/01/19 07:46:48;;;;;;;14.27;8.75;;;2.40;99.90;;;;;;4999017;28;20119;-78
2024/01/19 07:49:20;;;;;;;10.23;7.97;;;2.40;99.90;;;;;;4966529;28;20030;-74
2024/01/19 07:51:46;;;;;;;12.27;8.73;;;2.30;99.90;;;;;;4998709;28;20041;-78
2024/01/19 07:54:12;;;;;;;15.48;8.60;;;2.30;99.90;;;;;;5016008;28;20033;-75
2024/01/19 07:56:38;;;;;;;17.65;8.13;;;2.30;99.90;;;;;;4982146;28;20120;-76
2024/01/19 07:59:03;;;;;;;18.42;9.25;;;2.30;99.90;;;;;;5015941;28;20096;-75
2024/01/19 08:01:29;;;;;;;19.40;7.85;;;2.30;99.90;;;;;;5015958;28;20052;-75
2024/01/19 08:03:55;;;;;;;16.30;8.10;;;2.30;99.90;;;;;;4998075;28;20096;-76
2024/01/19 08:06:20;;;;;;;12.48;8.57;;;2.30;99.90;;;;;;4997261;28;20131;-75
2024/01/19 08:08:46;;;;;;;11.93;7.03;;;2.40;99.90;;;;;;4997938;28;20072;-75
2024/01/19 08:11:11;;;;;;;13.32;7.45;;;2.50;99.90;;;;;;4981634;28;20030;-76
2024/01/19 08:13:39;;;;;;;11.93;7.45;;;2.60;99.90;;;;;;4997453;28;20058;-76
2024/01/19 08:16:07;;;;;;;13.57;7.38;;;2.60;99.90;;;;;;4966674;28;20213;-76
2024/01/19 08:18:34;;;;;;;11.18;6.43;;;2.70;99.90;;;;;;4997877;28;20030;-76
2024/01/19 08:21:03;;;;;;;11.80;6.70;;;2.80;99.90;;;;;;5015513;28;20467;-78
2024/01/19 08:23:29;;;;;;;11.80;6.47;;;2.70;99.90;;;;;;4997330;28;20030;-76
2024/01/19 08:25:55;;;;;;;13.52;6.45;;;2.70;99.90;;;;;;4998018;28;20038;-75
2024/01/19 08:28:21;;;;;;;14.05;5.82;;;2.60;99.90;;;;;;4997804;28;20041;-78
2024/01/19 08:30:47;;;;;;;13.40;6.38;;;2.60;99.90;;;;;;4998254;28;20022;-81
2024/01/19 08:33:13;;;;;;;11.68;6.82;;;2.60;99.90;;;;;;5015523;28;20030;-81
2024/01/19 08:35:38;;;;;;;13.77;6.45;;;2.40;99.90;;;;;;4965649;28;20048;-79
2024/01/19 08:38:04;;;;;;;16.77;7.90;;;2.40;99.90;;;;;;4997651;28;20029;-79
2024/01/19 08:40:30;;;;;;;14.48;6.90;;;2.30;99.90;;;;;;5015124;28;20034;-80
2024/01/19 08:42:56;;;;;;;14.10;7.40;;;2.40;99.90;;;;;;4998470;28;20030;-77
2024/01/19 08:45:22;;;;;;;13.57;7.20;;;2.40;99.90;;;;;;4997481;28;20041;-80
2024/01/19 08:47:50;;;;;;;13.05;7.35;;;2.40;99.90;;;;;;4997588;28;20034;-80
2024/01/19 08:50:16;;;;;;;16.00;8.10;;;2.50;99.90;;;;;;4982184;28;20030;-78
2024/01/19 08:52:42;;;;;;;12.10;8.05;;;2.60;99.90;;;;;;4981181;28;20030;-79
2024/01/19 08:55:08;;;;;;;14.25;7.32;;;2.60;99.90;;;;;;4997986;28;20045;-79
2024/01/19 08:57:34;;;;;;;14.45;7.50;;;2.60;99.90;;;;;;4981106;28;20030;-80
2024/01/19 09:00:00;;;;;;;17.30;8.57;;;2.60;99.90;;;;;;4997543;28;20026;-80
2024/01/19 09:02:26;;;;;;;18.42;8.73;;;2.50;99.90;;;;;;5014807;28;20028;-80
2024/01/19 09:04:52;;;;;;;21.98;9.82;;;2.60;99.90;;;;;;4997087;28;20026;-80
2024/01/19 09:07:18;;;;;;;19.25;8.20;;;2.50;99.90;;;;;;4997145;28;20034;-81
2024/01/19 09:09:44;;;;;;;17.98;8.18;;;2.50;99.90;;;;;;4997126;28;20374;-81
2024/01/19 09:12:10;;;;;;;20.27;8.55;;;2.60;99.90;;;;;;4980469;28;20058;-78
2024/01/19 09:14:36;;;;;;;18.90;8.38;;;2.60;99.90;;;;;;4997526;28;20026;-78
2024/01/19 09:17:02;;;;;;;18.52;10.38;;;2.60;99.90;;;;;;4964972;28;20390;-77
2024/01/19 09:19:28;;;;;;;21.60;9.75;;;2.60;99.90;;;;;;4980732;28;20038;-76
2024/01/19 09:21:53;;;;;;;24.52;10.25;;;2.50;99.90;;;;;;4981035;28;20030;-77
2024/01/19 09:24:20;;;;;;;20.63;9.05;;;2.50;99.90;;;;;;4980318;28;20054;-76
2024/01/19 09:26:45;;;;;;;18.08;9.38;;;2.50;99.90;;;;;;4997013;28;20034;-77
2024/01/19 09:29:11;;;;;;;26.60;10.45;;;2.50;99.90;;;;;;4996419;28;20448;-77
2024/01/19 09:31:44;;;;;;;16.00;9.18;;;2.60;99.90;;;;;;4996966;28;20034;-77
2024/01/19 09:34:10;;;;;;;17.63;10.23;;;2.60;99.90;;;;;;4996841;28;20030;-77
2024/01/19 09:36:37;;;;;;;16.17;10.63;;;2.60;99.90;;;;;;4980200;28;20042;-78
2024/01/19 09:39:03;;;;;;;26.45;11.90;;;2.60;99.90;;;;;;4996840;28;20030;-77
2024/01/19 09:41:36;;;;;;;23.67;12.70;;;2.50;99.90;;;;;;4980308;28;20038;-77
2024/01/19 09:44:10;;;;;;;23.08;13.23;;;2.50;99.90;;;;;;5014105;28;20022;-78
2024/01/19 09:46:51;;;;;;;31.20;15.00;;;2.60;99.90;;;;;;4996146;28;20129;-77
2024/01/19 09:49:37;;;;;;;23.77;13.50;;;2.50;99.90;;;;;;5013397;28;20034;-76
2024/01/19 09:52:25;;;;;;;34.28;14.85;;;2.50;99.90;;;;;;4996118;28;20494;-76
2024/01/19 09:54:51;;;;;;;23.25;14.30;;;2.50;99.90;;;;;;5013995;28;20029;-77
2024/01/19 09:57:17;;;;;;;31.05;15.98;;;2.60;99.90;;;;;;4979497;28;20482;-77
2024/01/19 09:59:43;;;;;;;27.70;16.13;;;2.60;99.90;;;;;;4980524;28;20040;-75
2024/01/19 10:02:11;;;;;;;28.20;16.67;;;2.60;99.90;;;;;;4979457;28;20453;-75
2024/01/19 10:04:37;;;;;;;27.88;15.95;;;2.70;99.90;;;;;;5016076;28;20037;-75
2024/01/19 10:07:03;;;;;;;27.45;17.10;;;2.70;99.90;;;;;;4995710;28;20037;-76
2024/01/19 10:09:31;;;;;;;23.98;14.65;;;2.80;99.90;;;;;;4996470;28;20038;-76
2024/01/19 10:11:56;;;;;;;22.90;15.50;;;2.80;99.90;;;;;;4980273;28;20030;-77
2024/01/19 10:14:26;;;;;;;24.70;15.05;;;2.80;99.90;;;;;;4982101;28;20101;-76
2024/01/19 10:16:52;;;;;;;25.52;14.77;;;2.90;99.90;;;;;;4997583;28;20108;-77
2024/01/19 10:19:21;;;;;;;27.67;16.02;;;3.00;99.90;;;;;;4997672;28;20033;-78
2024/01/19 10:21:49;;;;;;;24.27;14.40;;;3.10;99.90;;;;;;4966639;28;20030;-77
2024/01/19 10:24:20;;;;;;;25.67;14.07;;;3.20;99.90;;;;;;5014311;28;20110;-77
2024/01/19 10:26:56;;;;;;;19.52;13.13;;;3.30;99.90;;;;;;4997237;28;20045;-78
2024/01/19 10:29:22;;;;;;;19.33;13.02;;;3.40;99.90;;;;;;4980029;28;20041;-78
2024/01/19 10:31:53;;;;;;;17.15;11.57;;;3.40;99.90;;;;;;5013357;28;20037;-79
2024/01/19 10:34:23;;;;;;;17.05;11.27;;;3.40;99.90;;;;;;4996144;28;20470;-78
2024/01/19 10:36:50;;;;;;;17.05;9.68;;;3.50;99.90;;;;;;5013150;28;20474;-78
2024/01/19 10:39:31;;;;;;;16.83;9.15;;;3.60;99.90;;;;;;4963766;28;20034;-78
2024/01/19 10:42:09;;;;;;;16.92;9.23;;;3.70;99.90;;;;;;4995400;28;20030;-75
2024/01/19 10:44:34;;;;;;;15.15;8.35;;;3.80;99.90;;;;;;4995393;28;20037;-78
2024/01/19 10:47:01;;;;;;;14.18;7.85;;;3.90;99.90;;;;;;4963245;28;20493;-78
2024/01/19 10:49:27;;;;;;;13.15;7.10;;;4.00;99.90;;;;;;4995949;28;20585;-76
2024/01/19 10:51:53;;;;;;;18.50;7.38;;;4.00;99.90;;;;;;4979782;28;20034;-76
2024/01/19 10:54:26;;;;;;;12.50;6.63;;;4.20;99.90;;;;;;4995227;28;20030;-76
2024/01/19 10:57:05;;;;;;;15.00;7.05;;;4.30;99.90;;;;;;5013114;28;20033;-76
2024/01/19 10:59:31;;;;;;;11.98;6.65;;;4.40;99.90;;;;;;4998225;28;20022;-79
2024/01/19 11:01:59;;;;;;;12.55;6.15;;;4.40;99.90;;;;;;4985573;28;20026;-78
2024/01/19 11:04:25;;;;;;;13.40;6.28;;;4.50;99.90;;;;;;5017152;28;20026;-77
2024/01/19 11:06:51;;;;;;;14.82;5.93;;;4.70;99.90;;;;;;5014164;28;20042;-76
2024/01/19 11:09:17;;;;;;;11.30;6.10;;;4.70;99.90;;;;;;4978939;28;20467;-76
2024/01/19 11:11:59;;;;;;;16.50;6.20;;;4.70;99.90;;;;;;5013263;28;20088;-76
2024/01/19 11:14:27;;;;;;;13.27;5.70;;;4.80;99.90;;;;;;4979269;28;20046;-76
2024/01/19 11:16:54;;;;;;;9.77;5.47;;;4.90;99.90;;;;;;5012882;28;20030;-77
2024/01/19 11:19:22;;;;;;;9.73;6.03;;;5.00;99.90;;;;;;5012584;28;20121;-76
2024/01/19 11:21:48;;;;;;;13.48;6.40;;;5.00;99.90;;;;;;5012520;28;20049;-77
2024/01/19 11:24:17;;;;;;;9.63;5.68;;;5.20;99.90;;;;;;5012385;28;20065;-77
2024/01/19 11:27:02;;;;;;;13.15;5.68;;;5.30;99.90;;;;;;4994803;28;20439;-76
2024/01/19 11:29:42;;;;;;;13.13;5.70;;;5.40;99.90;;;;;;5012553;28;20082;-77
2024/01/19 11:32:09;;;;;;;13.65;5.57;;;5.40;99.90;;;;;;4994849;28;20025;-77
2024/01/19 11:34:45;;;;;;;13.80;5.55;;;5.60;99.90;;;;;;4994836;28;20034;-77
2024/01/19 11:37:46;;;;;;;12.43;5.28;;;5.60;99.90;;;;;;5012614;28;20498;-77
2024/01/19 11:40:24;;;;;;;12.05;4.80;;;5.70;99.90;;;;;;4994474;28;20117;-77
2024/01/19 11:42:50;;;;;;;9.93;4.65;;;5.70;99.90;;;;;;4997775;28;20078;-76
2024/01/19 11:45:28;;;;;;;8.85;5.07;;;5.70;99.90;;;;;;4998314;28;20493;-77
2024/01/19 11:47:54;;;;;;;8.85;4.07;;;5.70;99.90;;;;;;5016142;28;20025;-76
2024/01/19 11:50:46;;;;;;;8.80;3.88;;;5.90;99.90;;;;;;4998493;28;20026;-77
2024/01/19 11:53:13;;;;;;;13.70;4.40;;;5.80;99.90;;;;;;4998081;28;20037;-77
2024/01/19 11:55:45;;;;;;;7.50;4.50;;;5.80;99.90;;;;;;4998760;28;20540;-77
2024/01/19 11:58:30;;;;;;;10.68;4.50;;;5.80;99.90;;;;;;5015781;28;20037;-77
2024/01/19 12:01:00;;;;;;;9.95;3.40;;;5.90;99.90;;;;;;4997682;28;20112;-76
2024/01/19 12:03:27;;;;;;;8.10;3.35;;;5.90;99.90;;;;;;5015770;28;20079;-77
2024/01/19 12:05:55;;;;;;;6.95;2.95;;;6.00;99.90;;;;;;4997922;28;20464;-77
2024/01/19 12:08:21;;;;;;;9.95;3.33;;;6.00;99.90;;;;;;4998530;28;20037;-77
2024/01/19 12:10:46;;;;;;;9.18;3.13;;;6.00;99.90;;;;;;4997576;28;20030;-77
2024/01/19 12:13:12;;;;;;;8.18;2.95;;;6.00;99.90;;;;;;4997478;28;20049;-77
2024/01/19 12:15:40;;;;;;;8.85;2.92;;;6.00;99.90;;;;;;4998366;28;20446;-76
2024/01/19 12:18:06;;;;;;;8.32;3.17;;;6.10;99.90;;;;;;5015632;28;20376;-77
2024/01/19 12:20:32;;;;;;;11.30;3.67;;;6.10;99.90;;;;;;4997778;28;20030;-77
2024/01/19 12:22:58;;;;;;;8.32;2.60;;;6.10;99.90;;;;;;5014987;28;20037;-77
2024/01/19 12:25:25;;;;;;;6.18;3.03;;;6.10;99.90;;;;;;5014880;28;20105;-77
2024/01/19 12:28:03;;;;;;;8.45;2.75;;;6.00;99.90;;;;;;4997358;28;20030;-77
2024/01/19 12:30:34;;;;;;;12.05;3.08;;;6.00;99.90;;;;;;4997637;28;20033;-77
2024/01/19 12:33:14;;;;;;;9.75;2.88;;;6.00;99.90;;;;;;5014907;28;20029;-77
2024/01/19 12:35:41;;;;;;;10.27;2.78;;;6.10;99.90;;;;;;5015451;28;20026;-77
2024/01/19 12:38:07;;;;;;;7.75;2.60;;;6.10;99.90;;;;;;5015327;28;20049;-76
2024/01/19 12:40:35;;;;;;;9.00;3.30;;;6.10;99.90;;;;;;5015346;28;20065;-77
2024/01/19 12:43:04;;;;;;;14.43;2.97;;;6.10;99.90;;;;;;5014968;28;20390;-77
2024/01/19 12:45:31;;;;;;;9.73;3.35;;;6.10;99.90;;;;;;5015305;28;20054;-77
2024/01/19 12:47:59;;;;;;;12.48;3.03;;;6.10;99.90;;;;;;5015716;28;20065;-77
2024/01/19 12:50:26;;;;;;;9.38;3.03;;;6.20;99.90;;;;;;4983335;28;20128;-75